Time;durP1;ratioP1;P1;durP2;ratioP2;P2;SDS_P1;SDS_P2;PMS_P1;PMS_P2;Temp;Humidity;BMP_temperature;BMP_pressure;BME280_temperature;BME280_humidity;BME280_pressure;Samples;Min_cycle;Max_cycle;Signal;HPM_P1;HPM_P2
2022/06/28 00:02:01;;;;;;;;;0.00;0.00;;;;;21.39;76.99;101852.25;5098859;27;45468;-75
2022/06/28 00:04:26;;;;;;;;;0.67;0.67;;;;;21.36;77.43;101849.59;5098983;27;57367;-75
2022/06/28 00:06:53;;;;;;;;;2.33;0.00;;;;;21.34;77.80;101843.38;5098962;27;45304;-76
2022/06/28 00:09:18;;;;;;;;;2.67;1.67;;;;;21.31;77.94;101841.66;5099402;27;45481;-75
2022/06/28 00:11:43;;;;;;;;;1.00;1.00;;;;;21.28;78.75;101847.03;5098929;27;45253;-75
2022/06/28 00:16:57;;;;;;;;;2.00;2.00;;;;;21.25;79.08;101840.81;5099168;27;45442;-76
2022/06/28 00:19:23;;;;;;;;;1.33;0.33;;;;;21.21;79.25;101831.06;5099507;27;45330;-75
2022/06/28 00:21:49;;;;;;;;;2.00;1.00;;;;;21.15;79.17;101829.38;5098803;27;45224;-76
2022/06/28 00:24:14;;;;;;;;;0.33;0.33;;;;;21.13;79.65;101831.19;5098718;27;46381;-75
2022/06/28 00:26:41;;;;;;;;;2.00;1.00;;;;;21.09;79.72;101837.50;5099331;27;45332;-75
2022/06/28 00:29:06;;;;;;;;;1.00;1.00;;;;;21.03;80.40;101832.22;5098864;27;45433;-75
2022/06/28 00:31:34;;;;;;;;;3.00;2.00;;;;;21.00;80.49;101827.81;5098317;27;45266;-76
2022/06/28 00:34:00;;;;;;;;;2.33;1.00;;;;;20.96;80.79;101827.88;5095550;27;46469;-76
2022/06/28 00:36:25;;;;;;;;;1.00;1.00;;;;;20.94;81.22;101827.91;5098172;27;45281;-76
2022/06/28 00:38:50;;;;;;;;;1.00;1.00;;;;;20.90;81.63;101827.06;5098050;27;59728;-76
2022/06/28 00:41:19;;;;;;;;;2.33;1.33;;;;;20.84;81.60;101827.19;5094036;27;45583;-76
2022/06/28 00:43:45;;;;;;;;;1.33;1.33;;;;;20.82;81.65;101833.47;5098781;27;46454;-75
2022/06/28 00:46:10;;;;;;;;;1.00;1.00;;;;;20.79;82.12;101834.41;5079301;27;61918;-75
2022/06/28 00:48:36;;;;;;;;;1.00;1.00;;;;;20.77;82.13;101832.63;5098734;27;45798;-75
2022/06/28 00:51:02;;;;;;;;;2.67;2.00;;;;;20.73;83.00;101837.19;5097931;27;58557;-75
2022/06/28 00:53:27;;;;;;;;;2.00;2.00;;;;;20.70;83.17;101825.59;5098249;27;47283;-76
2022/06/28 00:55:53;;;;;;;;;3.33;2.00;;;;;20.66;83.06;101822.94;5096461;27;65531;-76
2022/06/28 00:58:18;;;;;;;;;4.33;2.00;;;;;20.66;83.99;101830.13;5097755;27;45575;-76
2022/06/28 01:00:48;;;;;;;;;2.00;2.00;;;;;20.63;83.42;101830.19;5098367;27;47183;-76
2022/06/28 01:03:22;;;;;;;;;3.33;1.00;;;;;20.61;84.32;101834.66;5097390;27;47630;-75
2022/06/28 01:05:48;;;;;;;;;3.33;2.00;;;;;20.58;84.33;101832.94;5097797;27;45237;-75
2022/06/28 01:08:13;;;;;;;;;3.00;1.00;;;;;20.54;85.00;101833.88;5098422;27;45234;-75
2022/06/28 01:10:40;;;;;;;;;1.33;1.33;;;;;20.52;84.94;101826.78;5096614;27;45829;-76
2022/06/28 01:13:06;;;;;;;;;3.00;1.67;;;;;20.47;84.65;101821.47;5094274;27;47624;-75
2022/06/28 01:15:32;;;;;;;;;1.00;1.00;;;;;20.45;85.44;101825.03;5097061;27;45561;-75
2022/06/28 01:18:00;;;;;;;;;1.33;1.33;;;;;20.41;85.80;101821.53;5079851;27;45409;-74
2022/06/28 01:20:29;;;;;;;;;1.33;0.33;;;;;20.39;85.66;101826.88;5092819;27;45640;-76
2022/06/28 01:22:55;;;;;;;;;1.67;1.00;;;;;20.35;85.74;101825.19;5092441;27;47026;-76
2022/06/28 01:25:21;;;;;;;;;1.67;0.00;;;;;20.33;86.64;101823.41;5097827;27;45442;-76
2022/06/28 01:27:47;;;;;;;;;2.00;2.00;;;;;20.31;86.63;101826.13;5097955;27;45279;-75
2022/06/28 01:30:13;;;;;;;;;2.00;2.00;;;;;20.29;86.55;101825.22;5098221;27;45462;-75
2022/06/28 01:32:41;;;;;;;;;1.00;1.00;;;;;20.25;87.49;101826.22;5097426;27;46482;-75
2022/06/28 01:35:07;;;;;;;;;1.00;1.00;;;;;20.22;87.62;101820.00;5097869;27;45347;-75
2022/06/28 01:37:33;;;;;;;;;2.33;1.67;;;;;20.17;87.53;101830.75;5098260;27;45514;-75
2022/06/28 01:40:00;;;;;;;;;2.67;1.67;;;;;20.15;88.13;101824.56;5097625;27;45623;-75
2022/06/28 01:42:28;;;;;;;;;1.33;1.33;;;;;20.10;88.23;101823.72;5079008;27;46170;-75
2022/06/28 01:44:54;;;;;;;;;1.00;1.00;;;;;20.09;88.29;101822.84;5097662;27;46726;-75
2022/06/28 01:47:20;;;;;;;;;1.00;1.00;;;;;20.08;88.95;101829.09;5098104;27;45391;-75
2022/06/28 01:49:47;;;;;;;;;2.00;1.67;;;;;20.07;88.62;101826.44;5097376;27;45508;-76
2022/06/28 01:52:12;;;;;;;;;1.00;1.00;;;;;20.05;89.36;101821.09;5089309;27;45471;-74
2022/06/28 01:54:37;;;;;;;;;1.00;1.00;;;;;20.02;89.27;101820.22;5096940;27;62505;-75
2022/06/28 01:57:03;;;;;;;;;1.00;1.00;;;;;19.99;89.34;101821.16;5097676;27;45208;-76
2022/06/28 01:59:29;;;;;;;;;1.00;1.00;;;;;20.00;89.38;101822.06;5079294;27;45517;-75
2022/06/28 02:01:54;;;;;;;;;1.67;1.00;;;;;19.96;89.34;101820.31;5097309;27;46596;-75
2022/06/28 02:04:21;;;;;;;;;1.00;0.00;;;;;19.95;89.48;101816.75;5096569;27;67805;-75
2022/06/28 02:06:46;;;;;;;;;2.67;0.67;;;;;19.94;89.79;101816.78;5097582;27;45357;-75
2022/06/28 02:09:12;;;;;;;;;1.00;1.00;;;;;19.92;89.97;101813.19;5097057;27;45463;-75
2022/06/28 02:11:37;;;;;;;;;3.00;1.33;;;;;19.91;89.64;101808.75;5090776;27;65758;-75
2022/06/28 02:14:02;;;;;;;;;0.00;0.00;;;;;19.89;89.60;101809.66;5095831;27;65935;-76
2022/06/28 02:16:28;;;;;;;;;2.00;1.00;;;;;19.87;89.95;101806.13;5096295;27;59331;-75
2022/06/28 02:18:53;;;;;;;;;1.00;1.00;;;;;19.87;90.08;101807.94;5097032;27;56864;-76
2022/06/28 02:21:18;;;;;;;;;1.00;0.33;;;;;19.85;89.71;101807.91;5095776;27;66502;-75
2022/06/28 02:23:44;;;;;;;;;0.00;0.00;;;;;19.83;89.55;101809.75;5095958;27;47578;-75
2022/06/28 02:26:11;;;;;;;;;1.33;0.67;;;;;19.84;90.39;101805.25;5096862;27;59827;-75
2022/06/28 02:28:37;;;;;;;;;3.33;0.33;;;;;19.80;89.68;101804.41;5097124;27;45758;-75
2022/06/28 02:31:09;;;;;;;;;1.33;0.67;;;;;19.77;89.78;101798.22;5097125;27;47330;-75
2022/06/28 02:33:34;;;;;;;;;3.00;0.33;;;;;19.77;90.33;101801.78;5096437;27;45458;-75
2022/06/28 02:41:29;;;;;;;;;0.33;0.33;;;;;19.72;90.22;101805.41;5096841;27;45513;-75
2022/06/28 02:43:54;;;;;;;;;0.67;0.67;;;;;19.70;90.18;101801.84;5088672;27;49221;-75
2022/06/28 02:46:20;;;;;;;;;0.00;0.00;;;;;19.68;90.20;101809.03;5097935;27;52395;-76
2022/06/28 02:48:45;;;;;;;;;0.67;0.67;;;;;19.66;90.38;101802.81;5098323;27;45628;-76
2022/06/28 02:51:11;;;;;;;;;0.33;0.33;;;;;19.64;90.56;101805.47;5097270;27;47035;-76
2022/06/28 02:53:39;;;;;;;;;0.00;0.00;;;;;19.65;90.04;101806.38;5096133;27;66211;-76
2022/06/28 02:56:05;;;;;;;;;0.67;0.67;;;;;19.62;90.57;101804.63;5090426;27;45492;-76
2022/06/28 02:58:30;;;;;;;;;1.67;0.33;;;;;19.59;90.40;101801.97;5092156;27;45343;-76
2022/06/28 03:00:55;;;;;;;;;0.33;0.33;;;;;19.58;90.04;101806.41;5096496;27;46481;-76
2022/06/28 03:03:21;;;;;;;;;0.33;0.33;;;;;19.58;90.60;101810.88;5096362;27;63553;-76
2022/06/28 03:05:46;;;;;;;;;2.00;1.00;;;;;19.54;90.53;101811.81;5096082;27;45509;-76
2022/06/28 03:08:11;;;;;;;;;3.00;1.00;;;;;19.53;90.77;101807.34;5095948;27;64885;-76
2022/06/28 03:10:38;;;;;;;;;1.67;1.00;;;;;19.52;90.86;101808.25;5095598;27;69244;-75
2022/06/28 03:13:05;;;;;;;;;1.00;1.00;;;;;19.49;90.89;101802.94;5095501;27;66438;-75
2022/06/28 03:15:31;;;;;;;;;2.33;1.00;;;;;19.46;90.86;101811.00;5095881;27;45331;-76
2022/06/28 03:18:03;;;;;;;;;3.33;1.67;;;;;19.44;90.97;101808.34;5095694;27;63485;-75
2022/06/28 03:20:30;;;;;;;;;2.00;1.00;;;;;19.42;90.91;101806.59;5088680;27;46583;-76
2022/06/28 03:22:58;;;;;;;;;2.00;1.00;;;;;19.38;90.82;101806.59;5096475;27;50593;-75
2022/06/28 03:25:28;;;;;;;;;3.00;1.67;;;;;19.37;91.06;101804.81;5095833;27;45333;-75
2022/06/28 03:27:53;;;;;;;;;3.00;2.00;;;;;19.35;91.37;101811.13;5093987;27;64896;-76
2022/06/28 03:30:18;;;;;;;;;1.33;0.33;;;;;19.33;91.19;101808.47;5098210;27;70642;-76
2022/06/28 03:32:44;;;;;;;;;0.33;0.33;;;;;19.32;91.53;101811.13;5099810;27;45535;-75
2022/06/28 03:35:11;;;;;;;;;4.00;1.33;;;;;19.30;91.60;101808.47;5100111;27;45358;-75
2022/06/28 03:37:37;;;;;;;;;1.67;0.33;;;;;19.27;91.99;101803.13;5098698;27;45550;-75
2022/06/28 03:40:04;;;;;;;;;2.00;0.33;;;;;19.25;91.96;101806.75;5098980;27;65743;-76
2022/06/28 03:42:29;;;;;;;;;1.00;1.00;;;;;19.24;92.31;101811.22;5099719;27;45311;-75
2022/06/28 03:44:54;;;;;;;;;1.67;1.67;;;;;19.20;92.47;101814.81;5099139;27;61651;-75
2022/06/28 03:47:21;;;;;;;;;2.00;1.00;;;;;19.21;92.62;101818.38;5099367;27;46147;-76
2022/06/28 03:49:47;;;;;;;;;2.00;2.00;;;;;19.19;92.42;101822.88;5096420;27;47691;-75
2022/06/28 03:52:14;;;;;;;;;1.33;1.33;;;;;19.16;92.56;101818.41;5098833;27;67694;-76
2022/06/28 03:54:39;;;;;;;;;2.00;1.00;;;;;19.15;92.96;101822.00;5099330;27;45298;-75
2022/06/28 03:57:05;;;;;;;;;3.67;1.33;;;;;19.14;93.07;101820.22;5099818;27;45623;-76
2022/06/28 03:59:30;;;;;;;;;1.67;0.33;;;;;19.13;92.55;101825.59;5099200;27;47276;-75
2022/06/28 04:01:55;;;;;;;;;1.33;1.33;;;;;19.12;92.55;101822.00;5098891;27;63418;-76
2022/06/28 04:04:21;;;;;;;;;1.33;0.33;;;;;19.09;93.06;101822.94;5098702;27;64350;-75
2022/06/28 04:06:46;;;;;;;;;2.00;0.33;;;;;19.06;92.93;101825.63;5098350;27;59001;-75
2022/06/28 04:09:11;;;;;;;;;1.33;1.00;;;;;19.04;93.15;101827.44;5099574;27;46470;-74
2022/06/28 04:11:37;;;;;;;;;1.00;1.00;;;;;19.04;93.61;101823.88;5091345;27;45227;-75
2022/06/28 04:14:02;;;;;;;;;1.00;1.00;;;;;19.00;93.21;101820.34;5098815;27;51372;-75
2022/06/28 04:16:32;;;;;;;;;2.00;1.00;;;;;19.00;93.59;101816.78;5099286;27;45539;-75
2022/06/28 04:18:57;;;;;;;;;1.33;1.00;;;;;18.99;93.44;101825.72;5096411;27;46246;-75
2022/06/28 04:21:23;;;;;;;;;3.00;2.00;;;;;18.98;93.40;101815.91;5099075;27;45500;-75
2022/06/28 04:23:48;;;;;;;;;6.00;1.00;;;;;18.99;94.11;101823.91;5098982;27;45961;-75
2022/06/28 04:26:13;;;;;;;;;1.00;1.00;;;;;18.98;93.97;101819.47;5099377;27;45447;-75
2022/06/28 04:28:39;;;;;;;;;0.67;0.67;;;;;18.99;93.48;101820.34;5098610;27;46437;-76
2022/06/28 04:31:05;;;;;;;;;3.33;1.00;;;;;19.01;93.73;101821.22;5090786;27;45296;-75
2022/06/28 04:33:30;;;;;;;;;1.00;1.00;;;;;19.03;93.66;101830.16;5099066;27;45245;-75
2022/06/28 04:35:56;;;;;;;;;1.67;1.00;;;;;19.05;93.50;101828.34;5098054;27;45497;-75
2022/06/28 04:38:23;;;;;;;;;3.67;1.00;;;;;19.05;93.61;101823.88;5098019;27;46407;-76
2022/06/28 04:40:49;;;;;;;;;2.00;0.33;;;;;19.07;93.56;101829.22;5096328;27;45461;-75
2022/06/28 04:43:14;;;;;;;;;1.00;1.00;;;;;19.07;93.52;101834.59;5096554;27;45310;-75
2022/06/28 04:45:39;;;;;;;;;2.00;0.33;;;;;19.08;93.80;101828.31;5098610;27;45572;-75
2022/06/28 04:48:05;;;;;;;;;3.00;1.00;;;;;19.09;93.84;101833.66;5097718;27;59084;-74
2022/06/28 04:50:31;;;;;;;;;1.00;1.00;;;;;19.10;93.66;101842.56;5098922;27;45501;-75
2022/06/28 04:52:59;;;;;;;;;0.67;0.33;;;;;19.09;93.70;101839.00;5095540;27;46851;-75
2022/06/28 04:55:24;;;;;;;;;1.00;1.00;;;;;19.11;93.38;101836.31;5097342;27;46280;-75
2022/06/28 04:57:49;;;;;;;;;2.00;1.00;;;;;19.11;93.82;101841.66;5096163;27;57652;-75
2022/06/28 05:00:15;;;;;;;;;0.33;0.33;;;;;19.09;93.19;101830.97;5097763;27;65543;-75
2022/06/28 05:02:41;;;;;;;;;1.00;1.00;;;;;19.17;93.50;101838.03;5098382;27;45485;-74
2022/06/28 05:05:11;;;;;;;;;1.00;1.00;;;;;19.19;93.09;101838.94;5098411;27;45824;-75
2022/06/28 05:07:37;;;;;;;;;3.00;2.00;;;;;19.21;92.92;101839.81;5097510;27;46441;-75
2022/06/28 05:10:05;;;;;;;;;1.00;1.00;;;;;19.21;93.45;101835.34;5091575;27;45596;-75
2022/06/28 05:12:31;;;;;;;;;3.67;0.33;;;;;19.24;93.10;101838.00;5097850;27;45339;-76
2022/06/28 05:14:57;;;;;;;;;0.00;0.00;;;;;19.27;93.35;101837.06;5098375;27;45598;-75
2022/06/28 05:17:23;;;;;;;;;1.33;0.33;;;;;19.29;92.45;101837.97;5097852;27;47368;-75
2022/06/28 05:19:52;;;;;;;;;0.00;0.00;;;;;19.32;92.81;101844.16;5097845;27;45454;-75
2022/06/28 05:22:17;;;;;;;;;2.67;1.00;;;;;19.34;92.71;101837.00;5098392;27;45433;-75
2022/06/28 05:24:43;;;;;;;;;0.33;0.33;;;;;19.40;92.86;101845.91;5097778;27;45240;-75
2022/06/28 05:27:08;;;;;;;;;2.67;1.00;;;;;19.44;92.31;101843.19;5097734;27;47226;-75
2022/06/28 05:29:34;;;;;;;;;2.00;0.67;;;;;19.51;92.03;101846.69;5097471;27;45298;-75
2022/06/28 05:31:59;;;;;;;;;2.67;0.67;;;;;19.55;92.20;101843.06;5097107;27;56662;-75
2022/06/28 05:34:24;;;;;;;;;0.00;0.00;;;;;19.57;92.05;101839.47;5097078;27;62484;-75
2022/06/28 05:36:50;;;;;;;;;1.00;0.33;;;;;19.62;91.95;101847.50;5097565;27;46503;-76
2022/06/28 05:39:15;;;;;;;;;0.67;0.67;;;;;19.66;91.04;101843.88;5097813;27;45315;-76
2022/06/28 05:41:44;;;;;;;;;0.67;0.67;;;;;19.70;90.91;101840.25;5097918;27;45339;-74
2022/06/28 05:44:12;;;;;;;;;1.00;1.00;;;;;19.72;90.94;101840.25;5097982;27;45509;-75
2022/06/28 05:46:39;;;;;;;;;1.33;1.33;;;;;19.76;91.06;101833.94;5097163;27;46628;-75
2022/06/28 05:49:05;;;;;;;;;0.33;0.33;;;;;19.77;90.73;101833.94;5096472;27;45364;-75
2022/06/28 05:51:30;;;;;;;;;1.00;1.00;;;;;19.79;90.52;101834.78;5097269;27;45324;-77
2022/06/28 05:53:56;;;;;;;;;2.00;1.00;;;;;19.81;91.19;101830.28;5096485;27;45144;-78
2022/06/28 05:56:22;;;;;;;;;3.00;2.00;;;;;19.85;91.31;101837.41;5089104;27;47404;-78
2022/06/28 05:58:47;;;;;;;;;1.67;1.33;;;;;19.91;90.90;101833.75;5095880;27;63537;-79
2022/06/28 06:01:12;;;;;;;;;3.67;1.33;;;;;20.00;90.63;101830.09;5096616;27;60110;-78
2022/06/28 06:03:38;;;;;;;;;1.33;1.00;;;;;20.04;89.97;101826.47;5096234;27;56891;-79
2022/06/28 06:06:04;;;;;;;;;1.67;1.67;;;;;20.05;89.84;101821.09;5209864;22;46635;-76
2022/06/28 06:08:29;;;;;;;;;2.67;0.67;;;;;20.06;89.68;101825.53;5097059;27;45451;-76
2022/06/28 06:10:54;;;;;;;;;1.33;1.33;;;;;20.06;90.09;101821.97;5096763;27;59170;-75
2022/06/28 06:13:20;;;;;;;;;4.00;1.00;;;;;20.08;89.83;101833.56;5097178;27;45219;-74
2022/06/28 06:15:45;;;;;;;;;0.67;0.67;;;;;20.05;89.58;101822.88;5096043;27;73000;-73
2022/06/28 06:18:11;;;;;;;;;1.67;1.67;;;;;19.98;89.66;101822.09;5096205;27;45316;-73
2022/06/28 06:20:36;;;;;;;;;2.00;2.00;;;;;19.95;89.81;101815.84;5096560;27;62236;-73
2022/06/28 06:23:01;;;;;;;;;2.00;2.00;;;;;19.88;89.53;101815.06;5096624;27;62150;-74
2022/06/28 06:25:27;;;;;;;;;1.00;1.00;;;;;19.82;89.73;101817.81;5096159;27;61697;-73
2022/06/28 06:27:52;;;;;;;;;3.67;2.00;;;;;19.76;90.11;101813.41;5096547;27;45432;-73
2022/06/28 06:30:17;;;;;;;;;3.33;2.00;;;;;19.73;90.61;101817.91;5096498;27;48472;-73
2022/06/28 06:32:43;;;;;;;;;1.67;1.67;;;;;19.70;90.47;101818.81;5096482;27;58923;-73
2022/06/28 06:35:09;;;;;;;;;1.67;1.67;;;;;19.67;90.09;101813.50;5094454;27;66804;-73
2022/06/28 06:37:34;;;;;;;;;1.67;1.67;;;;;19.65;90.37;101811.72;5096770;27;45531;-73
2022/06/28 06:40:00;;;;;;;;;3.33;1.67;;;;;19.66;89.63;101811.72;5094071;27;45440;-72
2022/06/28 06:42:25;;;;;;;;;2.67;1.33;;;;;19.67;89.98;101804.56;5095982;27;55536;-74
2022/06/28 06:44:50;;;;;;;;;0.00;0.00;;;;;19.66;90.61;101806.38;5094671;27;66006;-74
2022/06/28 06:47:16;;;;;;;;;2.67;1.00;;;;;19.65;90.19;101809.03;5095359;27;45893;-74
2022/06/28 06:49:41;;;;;;;;;2.00;2.00;;;;;19.67;90.45;101809.94;5095906;27;45444;-74
2022/06/28 06:52:08;;;;;;;;;2.67;0.67;;;;;19.66;90.10;101809.06;5096301;27;54853;-73
2022/06/28 06:54:33;;;;;;;;;0.00;0.00;;;;;19.72;89.68;101814.34;5093406;27;60987;-74
2022/06/28 06:56:58;;;;;;;;;1.00;0.00;;;;;19.73;88.67;101802.72;5094812;27;62477;-74
2022/06/28 06:59:24;;;;;;;;;1.33;1.00;;;;;19.79;89.14;101799.94;5095370;27;45440;-74
2022/06/28 07:01:49;;;;;;;;;1.00;1.00;;;;;19.84;88.59;101795.44;5093284;27;45361;-75
2022/06/28 07:04:15;;;;;;;;;2.00;0.00;;;;;19.86;88.70;101793.59;5084206;27;67000;-75
2022/06/28 07:06:41;;;;;;;;;2.67;2.00;;;;;19.93;88.73;101804.28;5091451;27;45414;-74
2022/06/28 07:09:06;;;;;;;;;1.00;1.00;;;;;19.96;88.62;101796.19;5095118;27;45492;-74
2022/06/28 07:11:33;;;;;;;;;1.00;0.67;;;;;20.01;88.98;101797.91;5094644;27;45630;-74
2022/06/28 07:13:59;;;;;;;;;5.67;3.00;;;;;20.04;89.37;101800.56;5090234;27;47492;-75
2022/06/28 07:16:25;;;;;;;;;3.00;2.00;;;;;20.08;89.08;101785.28;5091174;27;45693;-74
2022/06/28 07:18:50;;;;;;;;;1.00;1.00;;;;;20.12;88.65;101782.56;5088348;27;45341;-75
2022/06/28 07:21:15;;;;;;;;;1.00;1.00;;;;;20.16;88.28;101783.41;5094968;27;45527;-74
2022/06/28 07:23:41;;;;;;;;;3.00;2.00;;;;;20.19;88.50;101775.34;5088719;27;47297;-74
2022/06/28 07:26:07;;;;;;;;;2.00;2.00;;;;;20.21;87.69;101773.50;5093082;27;45435;-74
2022/06/28 07:28:32;;;;;;;;;3.00;1.67;;;;;20.22;87.40;101764.56;5095821;27;45543;-75
2022/06/28 07:30:58;;;;;;;;;3.00;1.67;;;;;20.25;87.80;101763.63;5090776;27;45543;-75
2022/06/28 07:33:23;;;;;;;;;2.00;2.00;;;;;20.28;87.64;101761.78;5091113;27;52339;-76
2022/06/28 07:35:48;;;;;;;;;2.67;1.00;;;;;20.33;87.98;101759.91;5091359;27;67046;-76
2022/06/28 07:38:14;;;;;;;;;1.00;1.00;;;;;20.37;87.77;101752.72;5094285;27;49964;-76
2022/06/28 07:40:39;;;;;;;;;1.67;1.33;;;;;20.42;87.51;101757.09;5094192;27;61361;-76
2022/06/28 07:43:05;;;;;;;;;1.00;1.00;;;;;20.47;87.90;101742.78;5085991;27;46488;-75
2022/06/28 07:45:30;;;;;;;;;1.00;1.00;;;;;20.50;87.53;101759.69;5090557;27;45465;-74
2022/06/28 07:47:55;;;;;;;;;2.67;1.00;;;;;20.52;87.65;101752.53;5094373;27;65697;-75
2022/06/28 07:53:06;;;;;;;;;3.00;2.00;;;;;20.61;86.91;101746.09;5083162;27;45774;-72
2022/06/28 07:55:32;;;;;;;;;3.33;2.00;;;;;20.61;86.86;101730.00;5089524;27;45555;-73
2022/06/28 07:57:57;;;;;;;;;3.33;1.00;;;;;20.67;86.89;101743.34;5090360;27;45487;-74
2022/06/28 08:00:23;;;;;;;;;4.67;2.00;;;;;20.71;86.31;101731.63;5090037;27;45510;-74
2022/06/28 08:02:49;;;;;;;;;4.00;1.33;;;;;20.75;85.17;101730.69;5093812;27;46359;-74
2022/06/28 08:05:16;;;;;;;;;2.67;2.67;;;;;20.80;85.43;101730.59;5092133;27;67754;-75
2022/06/28 08:07:42;;;;;;;;;1.67;1.67;;;;;20.81;84.52;101725.19;5091509;27;45559;-76
2022/06/28 08:10:08;;;;;;;;;1.33;1.33;;;;;20.86;85.34;101726.00;5086634;27;45563;-75
2022/06/28 08:12:33;;;;;;;;;3.00;3.00;;;;;20.94;84.98;101728.56;5091721;27;45668;-75
2022/06/28 08:14:59;;;;;;;;;4.00;2.00;;;;;20.99;84.90;101723.13;5094760;27;45491;-74
2022/06/28 08:17:24;;;;;;;;;3.00;2.00;;;;;21.03;84.31;101722.13;5096878;27;45404;-74
2022/06/28 08:19:50;;;;;;;;;3.00;2.67;;;;;21.11;84.34;101717.53;5096759;27;63175;-74
2022/06/28 08:22:15;;;;;;;;;1.00;1.00;;;;;21.14;82.78;101712.06;5093964;27;45635;-74
2022/06/28 08:24:41;;;;;;;;;4.00;2.00;;;;;21.18;82.00;101709.31;5094821;27;45268;-74
2022/06/28 08:27:06;;;;;;;;;1.33;1.33;;;;;21.22;82.13;101718.22;5091019;27;62360;-75
2022/06/28 08:29:32;;;;;;;;;3.33;2.00;;;;;21.27;82.26;101704.69;5091554;27;45708;-76
2022/06/28 08:31:58;;;;;;;;;2.00;2.00;;;;;21.32;81.18;101706.41;5097425;27;46343;-75
2022/06/28 08:34:23;;;;;;;;;2.33;0.67;;;;;21.34;80.72;101703.69;5092509;27;45790;-74
2022/06/28 08:36:49;;;;;;;;;1.00;1.00;;;;;21.37;81.24;101701.84;5090468;27;45537;-74
2022/06/28 08:39:14;;;;;;;;;3.33;2.00;;;;;21.42;81.48;101697.25;5094153;27;51779;-75
2022/06/28 08:41:42;;;;;;;;;3.00;1.00;;;;;21.48;81.11;101689.97;5086555;27;62744;-75
2022/06/28 08:44:10;;;;;;;;;3.00;1.00;;;;;21.56;81.45;101690.69;5094041;27;45350;-75
2022/06/28 08:46:36;;;;;;;;;3.00;2.00;;;;;21.64;81.05;101686.06;5090502;27;45400;-75
2022/06/28 08:49:23;;;;;;;;;5.67;2.00;;;;;21.70;79.70;101693.97;5095101;27;45557;-73
2022/06/28 08:51:51;;;;;;;;;3.33;2.00;;;;;21.74;79.92;101684.94;5075197;27;47594;-75
2022/06/28 08:54:18;;;;;;;;;3.00;2.33;;;;;21.80;80.17;101673.16;5089164;27;45521;-75
2022/06/28 08:56:44;;;;;;;;;3.33;3.00;;;;;21.84;80.20;101675.75;5086660;27;45550;-74
2022/06/28 08:59:09;;;;;;;;;6.00;2.00;;;;;21.90;80.04;101670.25;5096868;27;45533;-75
2022/06/28 09:01:35;;;;;;;;;4.00;2.00;;;;;21.95;80.14;101668.34;5092306;27;47331;-76
2022/06/28 09:04:01;;;;;;;;;2.33;2.33;;;;;22.03;78.23;101661.88;5090567;27;45363;-74
2022/06/28 09:06:26;;;;;;;;;1.33;1.33;;;;;22.03;77.08;101654.69;5089190;27;45497;-74
2022/06/28 09:08:51;;;;;;;;;2.33;1.33;;;;;22.07;77.02;101650.13;5095389;27;55668;-74
2022/06/28 09:11:17;;;;;;;;;1.00;1.00;;;;;22.11;76.55;101650.06;5096026;27;46236;-74
2022/06/28 09:13:43;;;;;;;;;3.00;2.00;;;;;22.16;76.68;101645.47;5093541;27;45449;-74
2022/06/28 09:16:08;;;;;;;;;2.00;2.00;;;;;22.23;75.95;101643.50;5095048;27;46897;-74
2022/06/28 09:18:34;;;;;;;;;2.33;1.00;;;;;22.27;76.03;101638.94;5094956;27;45354;-74
2022/06/28 09:20:59;;;;;;;;;1.33;1.33;;;;;22.31;76.70;101629.84;5094813;27;46623;-75
2022/06/28 09:23:33;;;;;;;;;4.00;2.00;;;;;22.40;75.37;101635.00;5095767;27;45619;-74
2022/06/28 09:26:06;;;;;;;;;1.33;1.33;;;;;22.45;74.62;101623.19;5096519;27;45523;-75
2022/06/28 09:28:33;;;;;;;;;2.00;2.00;;;;;22.48;74.37;101620.44;5096257;27;45712;-76
2022/06/28 09:31:26;;;;;;;;;1.33;1.33;;;;;22.57;73.48;101622.00;5093504;27;46311;-75
2022/06/28 09:34:01;;;;;;;;;3.00;1.00;;;;;22.65;73.74;101609.22;5090422;27;45489;-75
2022/06/28 09:36:28;;;;;;;;;2.00;2.00;;;;;22.72;73.34;101609.94;5084497;27;45444;-74
2022/06/28 09:38:56;;;;;;;;;3.33;1.00;;;;;22.78;71.16;101612.47;5092104;27;45430;-74
2022/06/28 09:41:25;;;;;;;;;1.00;1.00;;;;;22.82;70.42;101600.69;5088023;27;47635;-75
2022/06/28 09:44:08;;;;;;;;;1.00;1.00;;;;;22.85;68.10;101616.78;5096758;27;45400;-75
2022/06/28 09:46:34;;;;;;;;;1.67;1.67;;;;;22.85;68.98;101607.78;5090264;27;45489;-74
2022/06/28 09:49:04;;;;;;;;;1.00;1.00;;;;;22.85;69.62;101602.41;5095321;27;57187;-74
2022/06/28 09:51:31;;;;;;;;;1.00;1.00;;;;;22.87;66.72;101604.13;5087006;27;47565;-74
2022/06/28 09:53:59;;;;;;;;;3.00;1.00;;;;;22.90;65.86;101603.19;5096667;27;45356;-74
2022/06/28 09:56:26;;;;;;;;;3.00;1.33;;;;;22.95;67.90;101607.53;5091833;27;45501;-74
2022/06/28 09:58:52;;;;;;;;;2.00;2.00;;;;;23.05;68.48;101605.44;5091723;27;45482;-74
2022/06/28 10:01:20;;;;;;;;;4.00;2.00;;;;;23.13;67.89;101599.88;5091908;27;47453;-75
2022/06/28 10:03:48;;;;;;;;;1.67;1.67;;;;;23.19;66.65;101587.09;5097145;27;45415;-74
2022/06/28 10:06:13;;;;;;;;;1.00;1.00;;;;;23.26;66.21;101588.66;5096147;27;45586;-74
2022/06/28 10:08:40;;;;;;;;;2.33;1.00;;;;;23.33;66.48;101592.09;5094772;27;59815;-74
2022/06/28 10:11:05;;;;;;;;;1.00;1.00;;;;;23.38;64.94;101584.72;5093675;27;62095;-74
2022/06/28 10:16:21;;;;;;;;;0.67;0.67;;;;;23.44;61.47;101584.56;5097324;27;45622;-75
2022/06/28 10:18:47;;;;;;;;;1.00;1.00;;;;;23.46;62.66;101581.81;5096806;27;45611;-74
2022/06/28 10:21:13;;;;;;;;;2.00;1.00;;;;;23.47;62.13;101576.34;5091497;27;46318;-75
2022/06/28 10:23:40;;;;;;;;;2.00;2.00;;;;;23.52;62.06;101573.53;5097018;27;63815;-74
2022/06/28 10:26:12;;;;;;;;;1.00;1.00;;;;;23.57;62.38;101570.69;5102293;27;45583;-74
2022/06/28 10:28:40;;;;;;;;;2.33;2.00;;;;;23.66;63.27;101562.34;5095956;27;45682;-75
2022/06/28 10:31:41;;;;;;;;;1.33;1.33;;;;;23.73;62.01;101559.41;5096674;27;46362;-75
2022/06/28 10:34:12;;;;;;;;;3.00;0.67;;;;;23.76;62.07;101550.34;5053734;27;45463;-74
2022/06/28 10:36:50;;;;;;;;;1.00;1.00;;;;;23.81;63.77;101551.09;5096506;27;45476;-75
2022/06/28 10:39:18;;;;;;;;;2.00;2.00;;;;;23.85;60.63;101541.94;5097544;27;45536;-74
2022/06/28 10:41:46;;;;;;;;;3.67;2.00;;;;;23.91;60.37;101549.81;5096114;27;46644;-74
2022/06/28 10:44:21;;;;;;;;;1.00;1.00;;;;;23.94;58.71;101538.94;5097348;27;45549;-75
2022/06/28 10:47:13;;;;;;;;;2.00;2.00;;;;;24.01;58.32;101542.31;5088647;27;45358;-74
2022/06/28 10:49:51;;;;;;;;;1.00;1.00;;;;;24.05;58.29;101541.28;5086571;27;45192;-76
2022/06/28 10:52:18;;;;;;;;;1.67;1.00;;;;;24.09;58.50;101533.97;5096909;27;47331;-75
2022/06/28 10:54:52;;;;;;;;;1.00;1.00;;;;;24.13;55.74;101536.53;5096201;27;45376;-74
2022/06/28 10:57:23;;;;;;;;;2.33;2.33;;;;;24.14;56.68;101537.41;5097076;27;45512;-75
2022/06/28 10:59:51;;;;;;;;;5.00;2.00;;;;;24.15;54.82;101525.66;5096553;27;45390;-75
2022/06/28 11:02:17;;;;;;;;;2.00;2.00;;;;;24.16;54.90;101519.31;5096865;27;46729;-74
2022/06/28 11:04:43;;;;;;;;;2.00;2.00;;;;;24.18;55.13;101525.53;5096652;27;45396;-75
2022/06/28 11:07:24;;;;;;;;;4.00;1.33;;;;;24.22;56.24;101520.00;5097136;27;45446;-75
2022/06/28 11:09:55;;;;;;;;;5.33;2.00;;;;;24.27;56.46;101518.00;5096353;27;45536;-75
2022/06/28 11:12:35;;;;;;;;;1.33;1.00;;;;;24.34;55.02;101515.09;5096375;27;46606;-75
2022/06/28 11:15:04;;;;;;;;;5.33;1.67;;;;;24.36;55.36;101507.88;5095383;27;46728;-75
2022/06/28 11:17:32;;;;;;;;;4.67;2.00;;;;;24.41;56.99;101505.88;5095843;27;45510;-75
2022/06/28 11:20:02;;;;;;;;;1.67;1.67;;;;;24.47;56.03;101502.97;5083850;27;45656;-74
2022/06/28 11:22:30;;;;;;;;;3.00;1.67;;;;;24.55;54.79;101507.16;5096296;27;46571;-75
2022/06/28 11:24:59;;;;;;;;;1.67;1.67;;;;;24.66;53.27;101512.16;5095995;27;45310;-77
2022/06/28 11:27:25;;;;;;;;;1.00;1.00;;;;;24.78;52.21;101513.53;5095950;27;45366;-75
2022/06/28 11:29:55;;;;;;;;;1.00;1.00;;;;;24.93;53.87;101503.94;5096261;27;45350;-75
2022/06/28 11:32:23;;;;;;;;;2.33;1.00;;;;;24.99;52.23;101506.44;5095923;27;47041;-75
2022/06/28 11:35:05;;;;;;;;;3.00;1.00;;;;;24.98;52.51;101510.97;5094900;27;45572;-78
2022/06/28 11:37:45;;;;;;;;;2.33;1.00;;;;;24.90;53.18;101509.47;5088851;27;45441;-79